»·PEaware :: N228Q S35-R49

N228Q :: S35-R49

FLIGHT INFORMATION

Flight Status: Arrived
Operator: Privately registered:
United States
More flights under this callsign
Pilot: Chuck O. (4337)
Aircraft: BEECH AIRCRAFT BONANZA
(BE35)
More flights by this aircraft type
Origin: S35 Okanogan Legion
United States
Destination: R49 Ferry Co
United States
More flights between these airports :: More routes between these airports
Route:
File this flight plan on PilotEdge
Remarks: ABC WA LEG 30
Altitude:
(Current/Filed)
5,500ft
Speed:
(Current/Filed)
155kts
Departed: 26-Jul-20 10:32 AM
Arrived: 26-Jul-20 11:00 AM
Distance/Time
Traveled:
42nm/0:28
Distance/Time
To Go:
Arrived

Flight Plot

Page will automatically refresh every two minutes.

Flight plan parsing failed; only flown route is shown


Map Options




Map Legend


Flown Route
Filed Route
Departure Airport
Arrival Airport
Navaid (VOR, NDB)
Fix

Horizontal Profiles

Position Reports

Time Latitude Longitude Heading Altitude Ground
Speed
26-Jul-20 10:14 48.361622 -119.569826 238 1046ft 0kts
26-Jul-20 10:15 48.361621 -119.569829 238 1046ft 0kts
26-Jul-20 10:16 48.361619 -119.569833 238 1046ft 0kts
26-Jul-20 10:17 48.361617 -119.569837 238 1046ft 0kts
26-Jul-20 10:18 48.361616 -119.569841 238 1046ft 0kts
26-Jul-20 10:19 48.361626 -119.569988 306 1046ft 4kts
26-Jul-20 10:20 48.362092 -119.569000 105 1046ft 3kts
26-Jul-20 10:21 48.362080 -119.568940 105 1046ft 4kts
26-Jul-20 10:22 48.361924 -119.568791 205 1046ft 5kts
26-Jul-20 10:23 48.361362 -119.569024 205 1046ft 5kts
26-Jul-20 10:24 48.360066 -119.571794 234 1046ft 0kts
26-Jul-20 10:25 48.360055 -119.571818 234 1046ft 0kts
26-Jul-20 10:26 48.360053 -119.571822 234 1046ft 0kts
26-Jul-20 10:26 48.360051 -119.571826 234 1046ft 0kts
26-Jul-20 10:28 48.360048 -119.571831 234 1046ft 0kts
26-Jul-20 10:29 48.360046 -119.571835 234 1046ft 0kts
26-Jul-20 10:29 48.360045 -119.571839 234 1046ft 0kts
26-Jul-20 10:30 48.360463 -119.571228 61 1046ft 28kts
26-Jul-20 10:31 48.364129 -119.536080 63 1838ft 104kts
26-Jul-20 10:33 48.362252 -119.536468 116 3133ft 131kts
26-Jul-20 10:33 48.341595 -119.498653 125 3820ft 145kts
26-Jul-20 10:34 48.317727 -119.452217 128 4868ft 134kts
26-Jul-20 10:35 48.293511 -119.407183 128 5488ft 153kts
26-Jul-20 10:36 48.264505 -119.353985 128 5500ft 170kts
26-Jul-20 10:37 48.234669 -119.299139 128 5497ft 169kts
26-Jul-20 10:38 48.205007 -119.244451 128 5493ft 169kts
26-Jul-20 10:39 48.201385 -119.179175 87 5497ft 166kts
26-Jul-20 10:40 48.203854 -119.109766 86 5496ft 167kts
26-Jul-20 10:41 48.206354 -119.040276 86 5500ft 167kts
26-Jul-20 10:42 48.208755 -118.970876 86 5438ft 167kts
26-Jul-20 10:43 48.211160 -118.898271 86 4898ft 174kts
26-Jul-20 10:44 48.223775 -118.830948 63 4503ft 165kts
26-Jul-20 10:45 48.252416 -118.783738 28 4522ft 155kts
26-Jul-20 10:46 48.291467 -118.759836 18 4592ft 159kts
26-Jul-20 10:47 48.333465 -118.751152 2 4686ft 141kts
26-Jul-20 10:48 48.372204 -118.744905 9 4956ft 141kts
26-Jul-20 10:49 48.410123 -118.730148 2 5129ft 145kts
26-Jul-20 10:50 48.449310 -118.740114 350 5338ft 144kts
26-Jul-20 10:51 48.488634 -118.750387 353 5503ft 143kts
26-Jul-20 10:52 48.528991 -118.751330 1 5616ft 143kts
26-Jul-20 10:53 48.568966 -118.739265 23 5511ft 154kts
26-Jul-20 10:54 48.602537 -118.710468 29 4874ft 122kts
26-Jul-20 10:55 48.632230 -118.687493 31 4650ft 120kts
26-Jul-20 10:56 48.661652 -118.669890 14 3851ft 107kts
26-Jul-20 10:57 48.689825 -118.662051 5 3183ft 100kts
26-Jul-20 10:58 48.715465 -118.656904 7 2531ft 67kts
26-Jul-20 10:59 48.721351 -118.655802 31 2522ft 9kts
26-Jul-20 11:00 48.717698 -118.655752 188 2522ft 25kts
26-Jul-20 11:01 48.714393 -118.656224 68 2522ft 6kts
26-Jul-20 11:02 48.714441 -118.655692 184 2522ft 0kts
26-Jul-20 11:03 48.714441 -118.655692 184 2522ft 0kts
26-Jul-20 11:04 48.714441 -118.655692 184 2522ft 0kts
26-Jul-20 11:05 48.714441 -118.655692 184 2522ft 0kts
26-Jul-20 11:06 48.714441 -118.655692 184 2522ft 0kts
26-Jul-20 11:07 48.714441 -118.655692 184 2522ft 0kts
26-Jul-20 11:08 48.714441 -118.655692 184 2522ft 0kts
26-Jul-20 11:09 48.714441 -118.655692 184 2522ft 0kts

Navigation Log

Ident Type
Flight plan parsing failed, navigation log unavailable